sensor_id;sensor_type;location;lat;lon;timestamp;P1;durP1;ratioP1;P2;durP2;ratioP2
63312;SDS011;49442;45.640;13.812;2023-04-03T00:00:24;0.82;;;0.80;;
63312;SDS011;49442;45.640;13.812;2023-04-03T00:02:50;0.85;;;0.80;;
63312;SDS011;49442;45.640;13.812;2023-04-03T00:05:16;2.63;;;1.05;;
63312;SDS011;49442;45.640;13.812;2023-04-03T00:07:41;1.45;;;1.00;;
63312;SDS011;49442;45.640;13.812;2023-04-03T00:10:07;1.25;;;0.85;;
63312;SDS011;49442;45.640;13.812;2023-04-03T00:12:33;2.15;;;1.05;;
63312;SDS011;49442;45.640;13.812;2023-04-03T00:14:59;0.68;;;0.63;;
63312;SDS011;49442;45.640;13.812;2023-04-03T00:17:25;0.80;;;0.80;;
63312;SDS011;49442;45.640;13.812;2023-04-03T00:19:50;0.85;;;0.85;;
63312;SDS011;49442;45.640;13.812;2023-04-03T00:22:16;1.40;;;1.05;;
63312;SDS011;49442;45.640;13.812;2023-04-03T00:24:42;2.05;;;1.15;;
63312;SDS011;49442;45.640;13.812;2023-04-03T00:27:07;1.38;;;1.27;;
63312;SDS011;49442;45.640;13.812;2023-04-03T00:29:33;2.13;;;1.40;;
63312;SDS011;49442;45.640;13.812;2023-04-03T00:31:59;3.05;;;1.10;;
63312;SDS011;49442;45.640;13.812;2023-04-03T00:34:25;1.00;;;0.90;;
63312;SDS011;49442;45.640;13.812;2023-04-03T00:36:51;1.20;;;0.90;;
63312;SDS011;49442;45.640;13.812;2023-04-03T00:39:16;0.85;;;0.82;;
63312;SDS011;49442;45.640;13.812;2023-04-03T00:41:42;1.45;;;1.30;;
63312;SDS011;49442;45.640;13.812;2023-04-03T00:45:21;1.20;;;0.95;;
63312;SDS011;49442;45.640;13.812;2023-04-03T00:47:10;4.43;;;1.20;;
63312;SDS011;49442;45.640;13.812;2023-04-03T00:49:38;0.95;;;0.90;;
63312;SDS011;49442;45.640;13.812;2023-04-03T00:52:09;4.90;;;1.30;;
63312;SDS011;49442;45.640;13.812;2023-04-03T00:54:37;1.17;;;1.00;;
63312;SDS011;49442;45.640;13.812;2023-04-03T00:57:05;1.30;;;1.15;;
63312;SDS011;49442;45.640;13.812;2023-04-03T00:59:34;2.95;;;1.70;;
63312;SDS011;49442;45.640;13.812;2023-04-03T01:02:05;1.33;;;1.17;;
63312;SDS011;49442;45.640;13.812;2023-04-03T01:04:35;1.52;;;1.40;;
63312;SDS011;49442;45.640;13.812;2023-04-03T01:07:03;2.08;;;1.42;;
63312;SDS011;49442;45.640;13.812;2023-04-03T01:09:31;1.52;;;1.20;;
63312;SDS011;49442;45.640;13.812;2023-04-03T01:12:18;1.52;;;1.30;;
63312;SDS011;49442;45.640;13.812;2023-04-03T01:14:46;1.70;;;1.20;;
63312;SDS011;49442;45.640;13.812;2023-04-03T01:17:27;1.55;;;1.45;;
63312;SDS011;49442;45.640;13.812;2023-04-03T01:23:22;2.05;;;1.40;;
63312;SDS011;49442;45.640;13.812;2023-04-03T01:25:38;4.05;;;1.38;;
63312;SDS011;49442;45.640;13.812;2023-04-03T01:28:06;1.80;;;1.50;;
63312;SDS011;49442;45.640;13.812;2023-04-03T01:30:41;1.77;;;1.50;;
63312;SDS011;49442;45.640;13.812;2023-04-03T01:33:11;1.52;;;1.30;;
63312;SDS011;49442;45.640;13.812;2023-04-03T01:35:37;3.22;;;1.77;;
63312;SDS011;49442;45.640;13.812;2023-04-03T01:38:03;1.65;;;1.50;;
63312;SDS011;49442;45.640;13.812;2023-04-03T01:40:28;2.45;;;1.60;;
63312;SDS011;49442;45.640;13.812;2023-04-03T01:42:54;2.30;;;1.77;;
63312;SDS011;49442;45.640;13.812;2023-04-03T01:45:20;1.60;;;1.50;;
63312;SDS011;49442;45.640;13.812;2023-04-03T01:47:46;2.53;;;1.70;;
63312;SDS011;49442;45.640;13.812;2023-04-03T01:50:11;1.90;;;1.50;;
63312;SDS011;49442;45.640;13.812;2023-04-03T01:52:37;4.68;;;1.90;;
63312;SDS011;49442;45.640;13.812;2023-04-03T01:55:03;3.40;;;1.45;;
63312;SDS011;49442;45.640;13.812;2023-04-03T01:57:29;1.58;;;1.48;;
63312;SDS011;49442;45.640;13.812;2023-04-03T01:59:55;1.60;;;1.50;;
63312;SDS011;49442;45.640;13.812;2023-04-03T02:02:20;1.50;;;1.40;;
63312;SDS011;49442;45.640;13.812;2023-04-03T02:04:46;5.60;;;1.90;;
63312;SDS011;49442;45.640;13.812;2023-04-03T02:07:11;2.65;;;1.60;;
63312;SDS011;49442;45.640;13.812;2023-04-03T02:09:37;1.80;;;1.65;;
63312;SDS011;49442;45.640;13.812;2023-04-03T02:12:03;2.53;;;1.60;;
63312;SDS011;49442;45.640;13.812;2023-04-03T02:14:28;2.10;;;1.85;;
63312;SDS011;49442;45.640;13.812;2023-04-03T02:16:54;2.20;;;1.75;;
63312;SDS011;49442;45.640;13.812;2023-04-03T02:19:20;2.05;;;1.88;;
63312;SDS011;49442;45.640;13.812;2023-04-03T02:21:46;2.25;;;1.70;;
63312;SDS011;49442;45.640;13.812;2023-04-03T02:24:11;2.03;;;1.80;;
63312;SDS011;49442;45.640;13.812;2023-04-03T02:26:37;2.30;;;2.05;;
63312;SDS011;49442;45.640;13.812;2023-04-03T02:29:02;2.65;;;1.70;;
63312;SDS011;49442;45.640;13.812;2023-04-03T02:31:28;1.80;;;1.70;;
63312;SDS011;49442;45.640;13.812;2023-04-03T02:33:54;4.82;;;2.50;;
63312;SDS011;49442;45.640;13.812;2023-04-03T02:36:19;2.40;;;2.00;;
63312;SDS011;49442;45.640;13.812;2023-04-03T02:38:45;2.45;;;1.98;;
63312;SDS011;49442;45.640;13.812;2023-04-03T02:41:11;1.98;;;1.55;;
63312;SDS011;49442;45.640;13.812;2023-04-03T02:43:37;3.28;;;2.00;;
63312;SDS011;49442;45.640;13.812;2023-04-03T02:46:04;2.15;;;1.90;;
63312;SDS011;49442;45.640;13.812;2023-04-03T02:48:30;2.22;;;2.00;;
63312;SDS011;49442;45.640;13.812;2023-04-03T02:50:56;3.00;;;1.90;;
63312;SDS011;49442;45.640;13.812;2023-04-03T02:53:22;2.53;;;2.17;;
63312;SDS011;49442;45.640;13.812;2023-04-03T02:55:48;2.60;;;2.20;;
63312;SDS011;49442;45.640;13.812;2023-04-03T02:58:14;2.10;;;1.90;;
63312;SDS011;49442;45.640;13.812;2023-04-03T03:00:39;4.50;;;2.65;;
63312;SDS011;49442;45.640;13.812;2023-04-03T03:03:05;2.80;;;2.05;;
63312;SDS011;49442;45.640;13.812;2023-04-03T03:05:31;2.58;;;2.17;;
63312;SDS011;49442;45.640;13.812;2023-04-03T03:07:57;2.20;;;2.00;;
63312;SDS011;49442;45.640;13.812;2023-04-03T03:10:23;2.83;;;2.58;;
63312;SDS011;49442;45.640;13.812;2023-04-03T03:12:49;2.15;;;1.95;;
63312;SDS011;49442;45.640;13.812;2023-04-03T03:15:14;3.97;;;2.55;;
63312;SDS011;49442;45.640;13.812;2023-04-03T03:17:42;2.15;;;1.95;;
63312;SDS011;49442;45.640;13.812;2023-04-03T03:20:08;3.88;;;2.55;;
63312;SDS011;49442;45.640;13.812;2023-04-03T03:22:34;3.83;;;2.30;;
63312;SDS011;49442;45.640;13.812;2023-04-03T03:25:00;2.20;;;2.00;;
63312;SDS011;49442;45.640;13.812;2023-04-03T03:27:27;3.55;;;2.30;;
63312;SDS011;49442;45.640;13.812;2023-04-03T03:29:53;3.40;;;2.00;;
63312;SDS011;49442;45.640;13.812;2023-04-03T03:32:19;2.15;;;1.85;;
63312;SDS011;49442;45.640;13.812;2023-04-03T03:34:44;1.92;;;1.73;;
63312;SDS011;49442;45.640;13.812;2023-04-03T03:37:10;2.80;;;2.50;;
63312;SDS011;49442;45.640;13.812;2023-04-03T03:39:36;2.70;;;2.13;;
63312;SDS011;49442;45.640;13.812;2023-04-03T03:42:02;2.30;;;1.88;;
63312;SDS011;49442;45.640;13.812;2023-04-03T03:44:28;3.08;;;2.08;;
63312;SDS011;49442;45.640;13.812;2023-04-03T03:46:54;10.48;;;1.80;;
63312;SDS011;49442;45.640;13.812;2023-04-03T03:49:21;2.30;;;2.10;;
63312;SDS011;49442;45.640;13.812;2023-04-03T03:51:46;3.28;;;2.13;;
63312;SDS011;49442;45.640;13.812;2023-04-03T03:54:12;3.38;;;2.20;;
63312;SDS011;49442;45.640;13.812;2023-04-03T03:56:38;3.42;;;2.17;;
63312;SDS011;49442;45.640;13.812;2023-04-03T03:59:04;3.10;;;2.03;;
63312;SDS011;49442;45.640;13.812;2023-04-03T04:01:30;2.80;;;2.22;;
63312;SDS011;49442;45.640;13.812;2023-04-03T04:03:56;3.22;;;2.10;;
63312;SDS011;49442;45.640;13.812;2023-04-03T04:06:22;4.05;;;2.05;;
63312;SDS011;49442;45.640;13.812;2023-04-03T04:08:48;2.10;;;1.90;;
63312;SDS011;49442;45.640;13.812;2023-04-03T04:11:15;2.17;;;1.98;;
63312;SDS011;49442;45.640;13.812;2023-04-03T04:13:41;2.20;;;2.00;;
63312;SDS011;49442;45.640;13.812;2023-04-03T04:16:07;2.72;;;1.92;;
63312;SDS011;49442;45.640;13.812;2023-04-03T04:18:33;2.83;;;2.15;;
63312;SDS011;49442;45.640;13.812;2023-04-03T04:20:59;2.83;;;2.15;;
63312;SDS011;49442;45.640;13.812;2023-04-03T04:23:25;3.60;;;1.77;;
63312;SDS011;49442;45.640;13.812;2023-04-03T04:25:50;2.92;;;2.40;;
63312;SDS011;49442;45.640;13.812;2023-04-03T04:28:16;2.53;;;2.10;;
63312;SDS011;49442;45.640;13.812;2023-04-03T04:30:43;3.97;;;2.10;;
63312;SDS011;49442;45.640;13.812;2023-04-03T04:33:09;2.22;;;2.03;;
63312;SDS011;49442;45.640;13.812;2023-04-03T04:35:35;2.30;;;2.08;;
63312;SDS011;49442;45.640;13.812;2023-04-03T04:38:01;2.45;;;2.17;;
63312;SDS011;49442;45.640;13.812;2023-04-03T04:40:27;2.17;;;1.95;;
63312;SDS011;49442;45.640;13.812;2023-04-03T04:42:53;2.28;;;1.92;;
63312;SDS011;49442;45.640;13.812;2023-04-03T04:45:19;3.35;;;2.20;;
63312;SDS011;49442;45.640;13.812;2023-04-03T04:47:45;2.78;;;2.22;;
63312;SDS011;49442;45.640;13.812;2023-04-03T04:50:11;3.35;;;2.25;;
63312;SDS011;49442;45.640;13.812;2023-04-03T04:52:37;2.35;;;1.95;;
63312;SDS011;49442;45.640;13.812;2023-04-03T04:55:03;8.93;;;1.85;;
63312;SDS011;49442;45.640;13.812;2023-04-03T04:57:30;3.70;;;2.08;;
63312;SDS011;49442;45.640;13.812;2023-04-03T04:59:56;3.67;;;2.33;;
63312;SDS011;49442;45.640;13.812;2023-04-03T05:02:22;3.67;;;2.10;;
63312;SDS011;49442;45.640;13.812;2023-04-03T05:04:48;2.38;;;1.90;;
63312;SDS011;49442;45.640;13.812;2023-04-03T05:07:15;5.57;;;2.17;;
63312;SDS011;49442;45.640;13.812;2023-04-03T05:09:41;3.45;;;2.17;;
63312;SDS011;49442;45.640;13.812;2023-04-03T05:12:07;3.30;;;2.03;;
63312;SDS011;49442;45.640;13.812;2023-04-03T05:14:32;2.95;;;2.05;;
63312;SDS011;49442;45.640;13.812;2023-04-03T05:16:58;4.05;;;2.05;;
63312;SDS011;49442;45.640;13.812;2023-04-03T05:19:24;2.55;;;2.17;;
63312;SDS011;49442;45.640;13.812;2023-04-03T05:21:50;5.13;;;2.35;;
63312;SDS011;49442;45.640;13.812;2023-04-03T05:24:16;2.55;;;2.20;;
63312;SDS011;49442;45.640;13.812;2023-04-03T05:26:42;3.22;;;2.40;;
63312;SDS011;49442;45.640;13.812;2023-04-03T05:29:08;3.28;;;2.08;;
63312;SDS011;49442;45.640;13.812;2023-04-03T05:31:35;2.40;;;2.20;;
63312;SDS011;49442;45.640;13.812;2023-04-03T05:34:01;2.92;;;2.25;;
63312;SDS011;49442;45.640;13.812;2023-04-03T05:36:26;2.70;;;1.88;;
63312;SDS011;49442;45.640;13.812;2023-04-03T05:38:52;3.25;;;2.08;;
63312;SDS011;49442;45.640;13.812;2023-04-03T05:41:18;4.72;;;2.10;;
63312;SDS011;49442;45.640;13.812;2023-04-03T05:43:45;6.30;;;1.90;;
63312;SDS011;49442;45.640;13.812;2023-04-03T05:46:12;2.65;;;2.35;;
63312;SDS011;49442;45.640;13.812;2023-04-03T05:48:39;3.05;;;1.83;;
63312;SDS011;49442;45.640;13.812;2023-04-03T05:51:06;2.97;;;2.08;;
63312;SDS011;49442;45.640;13.812;2023-04-03T05:53:33;6.68;;;1.90;;
63312;SDS011;49442;45.640;13.812;2023-04-03T05:56:04;2.50;;;1.90;;
63312;SDS011;49442;45.640;13.812;2023-04-03T05:58:30;3.85;;;2.10;;
63312;SDS011;49442;45.640;13.812;2023-04-03T06:00:56;3.42;;;2.28;;
63312;SDS011;49442;45.640;13.812;2023-04-03T06:03:22;4.82;;;2.20;;
63312;SDS011;49442;45.640;13.812;2023-04-03T06:05:48;2.55;;;1.98;;
63312;SDS011;49442;45.640;13.812;2023-04-03T06:08:17;3.15;;;2.47;;
63312;SDS011;49442;45.640;13.812;2023-04-03T06:10:43;3.35;;;2.35;;
63312;SDS011;49442;45.640;13.812;2023-04-03T06:13:12;3.55;;;2.45;;
63312;SDS011;49442;45.640;13.812;2023-04-03T06:15:38;3.42;;;2.38;;
63312;SDS011;49442;45.640;13.812;2023-04-03T06:18:05;5.32;;;2.80;;
63312;SDS011;49442;45.640;13.812;2023-04-03T06:20:31;5.38;;;3.25;;
63312;SDS011;49442;45.640;13.812;2023-04-03T06:22:57;3.92;;;2.10;;
63312;SDS011;49442;45.640;13.812;2023-04-03T06:25:23;5.85;;;2.08;;
63312;SDS011;49442;45.640;13.812;2023-04-03T06:27:55;2.10;;;1.90;;
63312;SDS011;49442;45.640;13.812;2023-04-03T06:30:24;3.00;;;2.00;;
63312;SDS011;49442;45.640;13.812;2023-04-03T06:32:49;2.70;;;2.03;;
63312;SDS011;49442;45.640;13.812;2023-04-03T06:35:15;2.00;;;1.77;;
63312;SDS011;49442;45.640;13.812;2023-04-03T06:37:41;2.55;;;2.10;;
63312;SDS011;49442;45.640;13.812;2023-04-03T06:40:06;2.92;;;1.80;;
63312;SDS011;49442;45.640;13.812;2023-04-03T06:42:40;2.65;;;1.95;;
63312;SDS011;49442;45.640;13.812;2023-04-03T06:45:06;2.97;;;2.00;;
63312;SDS011;49442;45.640;13.812;2023-04-03T06:47:32;2.05;;;1.85;;
63312;SDS011;49442;45.640;13.812;2023-04-03T06:49:58;1.85;;;1.60;;
63312;SDS011;49442;45.640;13.812;2023-04-03T06:52:23;2.95;;;1.88;;
63312;SDS011;49442;45.640;13.812;2023-04-03T06:54:49;6.00;;;2.42;;
63312;SDS011;49442;45.640;13.812;2023-04-03T06:57:16;2.00;;;1.80;;
63312;SDS011;49442;45.640;13.812;2023-04-03T06:59:42;2.92;;;2.05;;
63312;SDS011;49442;45.640;13.812;2023-04-03T07:02:08;4.68;;;1.83;;
63312;SDS011;49442;45.640;13.812;2023-04-03T07:04:36;2.03;;;1.42;;
63312;SDS011;49442;45.640;13.812;2023-04-03T07:07:02;1.55;;;1.45;;
63312;SDS011;49442;45.640;13.812;2023-04-03T07:09:27;2.30;;;1.80;;
63312;SDS011;49442;45.640;13.812;2023-04-03T07:11:53;1.90;;;1.50;;
63312;SDS011;49442;45.640;13.812;2023-04-03T07:14:19;1.90;;;1.70;;
63312;SDS011;49442;45.640;13.812;2023-04-03T07:16:46;1.95;;;1.33;;
63312;SDS011;49442;45.640;13.812;2023-04-03T07:19:11;2.58;;;1.50;;
63312;SDS011;49442;45.640;13.812;2023-04-03T07:21:37;8.40;;;1.90;;
63312;SDS011;49442;45.640;13.812;2023-04-03T07:24:03;2.40;;;1.70;;
63312;SDS011;49442;45.640;13.812;2023-04-03T07:26:29;3.22;;;1.65;;
63312;SDS011;49442;45.640;13.812;2023-04-03T07:28:55;2.97;;;1.70;;
63312;SDS011;49442;45.640;13.812;2023-04-03T07:31:21;2.10;;;1.42;;
63312;SDS011;49442;45.640;13.812;2023-04-03T07:33:46;6.20;;;1.95;;
63312;SDS011;49442;45.640;13.812;2023-04-03T07:36:14;2.72;;;1.50;;
63312;SDS011;49442;45.640;13.812;2023-04-03T07:38:42;2.17;;;1.70;;
63312;SDS011;49442;45.640;13.812;2023-04-03T07:41:10;3.90;;;1.55;;
63312;SDS011;49442;45.640;13.812;2023-04-03T07:43:40;1.92;;;1.60;;
63312;SDS011;49442;45.640;13.812;2023-04-03T07:46:07;2.22;;;1.80;;
63312;SDS011;49442;45.640;13.812;2023-04-03T07:48:32;1.60;;;1.25;;
63312;SDS011;49442;45.640;13.812;2023-04-03T07:51:00;2.78;;;1.88;;
63312;SDS011;49442;45.640;13.812;2023-04-03T07:53:26;2.08;;;1.33;;
63312;SDS011;49442;45.640;13.812;2023-04-03T07:55:52;2.40;;;2.03;;
63312;SDS011;49442;45.640;13.812;2023-04-03T07:58:21;5.78;;;1.80;;
63312;SDS011;49442;45.640;13.812;2023-04-03T08:00:47;1.92;;;1.40;;
63312;SDS011;49442;45.640;13.812;2023-04-03T08:03:14;1.70;;;1.60;;
63312;SDS011;49442;45.640;13.812;2023-04-03T08:05:42;2.10;;;1.48;;
63312;SDS011;49442;45.640;13.812;2023-04-03T08:08:10;2.65;;;1.27;;
63312;SDS011;49442;45.640;13.812;2023-04-03T08:10:36;2.20;;;1.52;;
63312;SDS011;49442;45.640;13.812;2023-04-03T08:13:03;2.65;;;1.48;;
63312;SDS011;49442;45.640;13.812;2023-04-03T08:15:30;2.92;;;1.65;;
63312;SDS011;49442;45.640;13.812;2023-04-03T08:17:56;1.55;;;1.20;;
63312;SDS011;49442;45.640;13.812;2023-04-03T08:20:23;3.58;;;1.50;;
63312;SDS011;49442;45.640;13.812;2023-04-03T08:22:48;2.15;;;1.67;;
63312;SDS011;49442;45.640;13.812;2023-04-03T08:25:14;1.33;;;1.23;;
63312;SDS011;49442;45.640;13.812;2023-04-03T08:27:40;1.55;;;1.40;;
63312;SDS011;49442;45.640;13.812;2023-04-03T08:30:06;1.30;;;1.20;;
63312;SDS011;49442;45.640;13.812;2023-04-03T08:32:35;2.75;;;1.23;;
63312;SDS011;49442;45.640;13.812;2023-04-03T08:35:02;2.13;;;1.88;;
63312;SDS011;49442;45.640;13.812;2023-04-03T08:37:28;4.15;;;1.70;;
63312;SDS011;49442;45.640;13.812;2023-04-03T08:39:54;1.35;;;1.20;;
63312;SDS011;49442;45.640;13.812;2023-04-03T08:48:17;2.28;;;1.58;;
63312;SDS011;49442;45.640;13.812;2023-04-03T08:50:47;1.98;;;1.40;;
63312;SDS011;49442;45.640;13.812;2023-04-03T08:53:25;2.60;;;1.65;;
63312;SDS011;49442;45.640;13.812;2023-04-03T08:55:53;2.22;;;1.40;;
63312;SDS011;49442;45.640;13.812;2023-04-03T08:58:29;1.60;;;1.17;;
63312;SDS011;49442;45.640;13.812;2023-04-03T09:01:05;1.55;;;1.10;;
63312;SDS011;49442;45.640;13.812;2023-04-03T09:03:39;1.40;;;1.27;;
63312;SDS011;49442;45.640;13.812;2023-04-03T09:06:07;2.35;;;1.20;;
63312;SDS011;49442;45.640;13.812;2023-04-03T09:17:15;1.83;;;1.25;;
63312;SDS011;49442;45.640;13.812;2023-04-03T09:22:51;5.45;;;1.55;;
63312;SDS011;49442;45.640;13.812;2023-04-03T09:25:23;2.83;;;1.33;;
63312;SDS011;49442;45.640;13.812;2023-04-03T09:27:54;4.60;;;1.50;;
63312;SDS011;49442;45.640;13.812;2023-04-03T09:30:22;1.27;;;1.17;;
63312;SDS011;49442;45.640;13.812;2023-04-03T09:32:50;3.17;;;1.42;;
63312;SDS011;49442;45.640;13.812;2023-04-03T09:35:27;1.75;;;1.25;;
63312;SDS011;49442;45.640;13.812;2023-04-03T09:37:59;2.25;;;1.58;;
63312;SDS011;49442;45.640;13.812;2023-04-03T09:40:34;1.05;;;0.95;;
63312;SDS011;49442;45.640;13.812;2023-04-03T09:45:46;2.35;;;1.20;;
63312;SDS011;49442;45.640;13.812;2023-04-03T09:53:37;1.73;;;1.20;;
63312;SDS011;49442;45.640;13.812;2023-04-03T09:56:25;1.35;;;1.02;;
63312;SDS011;49442;45.640;13.812;2023-04-03T10:04:07;1.98;;;1.42;;
63312;SDS011;49442;45.640;13.812;2023-04-03T10:06:44;1.23;;;1.08;;
63312;SDS011;49442;45.640;13.812;2023-04-03T10:12:02;1.88;;;1.15;;
63312;SDS011;49442;45.640;13.812;2023-04-03T10:17:13;5.57;;;1.13;;
63312;SDS011;49442;45.640;13.812;2023-04-03T10:19:56;3.80;;;1.05;;
63312;SDS011;49442;45.640;13.812;2023-04-03T10:30:47;1.63;;;1.10;;
63312;SDS011;49442;45.640;13.812;2023-04-03T10:41:49;1.65;;;1.10;;
63312;SDS011;49442;45.640;13.812;2023-04-03T10:47:11;1.42;;;1.23;;
63312;SDS011;49442;45.640;13.812;2023-04-03T10:52:40;1.30;;;1.08;;
63312;SDS011;49442;45.640;13.812;2023-04-03T10:55:14;2.38;;;1.17;;
63312;SDS011;49442;45.640;13.812;2023-04-03T10:57:51;3.35;;;1.42;;
63312;SDS011;49442;45.640;13.812;2023-04-03T11:00:22;1.25;;;1.10;;
63312;SDS011;49442;45.640;13.812;2023-04-03T11:02:59;2.08;;;1.10;;
63312;SDS011;49442;45.640;13.812;2023-04-03T11:05:34;2.65;;;1.20;;
63312;SDS011;49442;45.640;13.812;2023-04-03T11:08:08;1.50;;;1.20;;
63312;SDS011;49442;45.640;13.812;2023-04-03T11:10:57;5.65;;;1.30;;
63312;SDS011;49442;45.640;13.812;2023-04-03T11:13:34;2.80;;;1.23;;
63312;SDS011;49442;45.640;13.812;2023-04-03T11:16:15;1.77;;;1.08;;
63312;SDS011;49442;45.640;13.812;2023-04-03T11:21:37;2.63;;;1.30;;
63312;SDS011;49442;45.640;13.812;2023-04-03T11:24:13;1.90;;;1.35;;
63312;SDS011;49442;45.640;13.812;2023-04-03T11:26:46;3.17;;;1.20;;
63312;SDS011;49442;45.640;13.812;2023-04-03T11:29:14;2.03;;;1.40;;
63312;SDS011;49442;45.640;13.812;2023-04-03T11:32:02;2.88;;;1.25;;
63312;SDS011;49442;45.640;13.812;2023-04-03T11:34:49;4.32;;;1.30;;
63312;SDS011;49442;45.640;13.812;2023-04-03T11:40:13;2.00;;;1.23;;
63312;SDS011;49442;45.640;13.812;2023-04-03T11:50:51;2.05;;;1.25;;
63312;SDS011;49442;45.640;13.812;2023-04-03T11:55:44;1.38;;;1.20;;
63312;SDS011;49442;45.640;13.812;2023-04-03T12:01:09;2.30;;;1.77;;
63312;SDS011;49442;45.640;13.812;2023-04-03T12:29:34;1.75;;;1.20;;
63312;SDS011;49442;45.640;13.812;2023-04-03T12:43:22;2.50;;;1.10;;
63312;SDS011;49442;45.640;13.812;2023-04-03T12:46:11;1.52;;;1.00;;
63312;SDS011;49442;45.640;13.812;2023-04-03T12:51:09;3.53;;;1.10;;
63312;SDS011;49442;45.640;13.812;2023-04-03T12:53:46;5.35;;;1.08;;
63312;SDS011;49442;45.640;13.812;2023-04-03T12:56:19;1.10;;;0.93;;
63312;SDS011;49442;45.640;13.812;2023-04-03T12:58:48;1.48;;;0.95;;
63312;SDS011;49442;45.640;13.812;2023-04-03T13:01:20;1.85;;;1.13;;
63312;SDS011;49442;45.640;13.812;2023-04-03T13:03:57;1.95;;;0.88;;
63312;SDS011;49442;45.640;13.812;2023-04-03T13:06:42;1.90;;;1.10;;
63312;SDS011;49442;45.640;13.812;2023-04-03T13:09:18;3.90;;;1.20;;
63312;SDS011;49442;45.640;13.812;2023-04-03T13:11:52;1.50;;;1.02;;
63312;SDS011;49442;45.640;13.812;2023-04-03T13:14:26;1.38;;;0.95;;
63312;SDS011;49442;45.640;13.812;2023-04-03T13:19:23;1.98;;;0.98;;
63312;SDS011;49442;45.640;13.812;2023-04-03T13:24:30;1.23;;;0.90;;
63312;SDS011;49442;45.640;13.812;2023-04-03T13:27:00;2.88;;;1.23;;
63312;SDS011;49442;45.640;13.812;2023-04-03T13:29:28;3.17;;;1.23;;
63312;SDS011;49442;45.640;13.812;2023-04-03T13:32:02;1.98;;;1.13;;
63312;SDS011;49442;45.640;13.812;2023-04-03T13:34:35;2.15;;;1.00;;
63312;SDS011;49442;45.640;13.812;2023-04-03T13:37:06;3.38;;;1.17;;
63312;SDS011;49442;45.640;13.812;2023-04-03T13:39:37;1.83;;;1.17;;
63312;SDS011;49442;45.640;13.812;2023-04-03T13:42:25;1.90;;;1.20;;
63312;SDS011;49442;45.640;13.812;2023-04-03T13:47:42;2.80;;;1.05;;
63312;SDS011;49442;45.640;13.812;2023-04-03T13:52:49;4.30;;;1.13;;
63312;SDS011;49442;45.640;13.812;2023-04-03T13:55:32;2.47;;;1.20;;
63312;SDS011;49442;45.640;13.812;2023-04-03T13:58:16;1.70;;;0.90;;
63312;SDS011;49442;45.640;13.812;2023-04-03T14:06:41;1.30;;;1.08;;
63312;SDS011;49442;45.640;13.812;2023-04-03T14:09:07;1.35;;;0.88;;
63312;SDS011;49442;45.640;13.812;2023-04-03T14:11:33;2.45;;;0.85;;
63312;SDS011;49442;45.640;13.812;2023-04-03T14:14:05;1.00;;;0.90;;
63312;SDS011;49442;45.640;13.812;2023-04-03T14:16:38;1.90;;;1.05;;
63312;SDS011;49442;45.640;13.812;2023-04-03T14:19:06;1.88;;;1.10;;
63312;SDS011;49442;45.640;13.812;2023-04-03T14:21:39;1.63;;;0.80;;
63312;SDS011;49442;45.640;13.812;2023-04-03T14:24:05;3.42;;;1.05;;
63312;SDS011;49442;45.640;13.812;2023-04-03T14:26:31;2.22;;;1.40;;
63312;SDS011;49442;45.640;13.812;2023-04-03T14:28:57;5.97;;;1.00;;
63312;SDS011;49442;45.640;13.812;2023-04-03T14:31:22;3.88;;;1.02;;
63312;SDS011;49442;45.640;13.812;2023-04-03T14:33:48;1.55;;;1.15;;
63312;SDS011;49442;45.640;13.812;2023-04-03T14:36:16;2.05;;;1.15;;
63312;SDS011;49442;45.640;13.812;2023-04-03T14:38:44;2.45;;;1.00;;
63312;SDS011;49442;45.640;13.812;2023-04-03T14:41:14;1.23;;;1.13;;
63312;SDS011;49442;45.640;13.812;2023-04-03T14:43:42;1.35;;;1.15;;
63312;SDS011;49442;45.640;13.812;2023-04-03T14:46:15;7.10;;;1.52;;
63312;SDS011;49442;45.640;13.812;2023-04-03T14:48:44;2.83;;;1.20;;
63312;SDS011;49442;45.640;13.812;2023-04-03T14:51:11;1.38;;;1.10;;
63312;SDS011;49442;45.640;13.812;2023-04-03T14:53:38;2.13;;;1.40;;
63312;SDS011;49442;45.640;13.812;2023-04-03T14:56:21;2.58;;;1.10;;
63312;SDS011;49442;45.640;13.812;2023-04-03T14:58:52;2.67;;;1.42;;
63312;SDS011;49442;45.640;13.812;2023-04-03T15:01:24;2.25;;;1.42;;
63312;SDS011;49442;45.640;13.812;2023-04-03T15:03:50;2.22;;;1.00;;
63312;SDS011;49442;45.640;13.812;2023-04-03T15:06:15;1.95;;;1.20;;
63312;SDS011;49442;45.640;13.812;2023-04-03T15:08:42;2.03;;;1.20;;
63312;SDS011;49442;45.640;13.812;2023-04-03T15:11:09;7.30;;;2.00;;
63312;SDS011;49442;45.640;13.812;2023-04-03T15:13:36;1.98;;;1.20;;
63312;SDS011;49442;45.640;13.812;2023-04-03T15:16:02;3.60;;;1.10;;
63312;SDS011;49442;45.640;13.812;2023-04-03T15:18:30;2.83;;;1.15;;
63312;SDS011;49442;45.640;13.812;2023-04-03T15:21:02;5.68;;;1.13;;
63312;SDS011;49442;45.640;13.812;2023-04-03T15:23:28;1.45;;;1.00;;
63312;SDS011;49442;45.640;13.812;2023-04-03T15:25:55;1.10;;;1.00;;
63312;SDS011;49442;45.640;13.812;2023-04-03T15:28:28;2.85;;;1.60;;
63312;SDS011;49442;45.640;13.812;2023-04-03T15:31:04;11.30;;;1.40;;
63312;SDS011;49442;45.640;13.812;2023-04-03T15:33:30;1.67;;;1.30;;
63312;SDS011;49442;45.640;13.812;2023-04-03T15:35:57;3.92;;;1.35;;
63312;SDS011;49442;45.640;13.812;2023-04-03T15:38:23;2.10;;;1.35;;
63312;SDS011;49442;45.640;13.812;2023-04-03T15:40:49;1.77;;;1.30;;
63312;SDS011;49442;45.640;13.812;2023-04-03T15:43:15;4.18;;;1.60;;
63312;SDS011;49442;45.640;13.812;2023-04-03T15:45:41;2.10;;;1.48;;
63312;SDS011;49442;45.640;13.812;2023-04-03T15:48:07;1.40;;;1.30;;
63312;SDS011;49442;45.640;13.812;2023-04-03T15:50:34;2.28;;;1.40;;
63312;SDS011;49442;45.640;13.812;2023-04-03T15:53:00;1.35;;;1.25;;
63312;SDS011;49442;45.640;13.812;2023-04-03T15:55:28;1.90;;;1.38;;
63312;SDS011;49442;45.640;13.812;2023-04-03T15:57:55;2.67;;;1.42;;
63312;SDS011;49442;45.640;13.812;2023-04-03T16:00:21;6.82;;;1.63;;
63312;SDS011;49442;45.640;13.812;2023-04-03T16:02:49;3.38;;;1.73;;
63312;SDS011;49442;45.640;13.812;2023-04-03T16:05:18;3.15;;;1.70;;
63312;SDS011;49442;45.640;13.812;2023-04-03T16:07:44;2.05;;;1.35;;
63312;SDS011;49442;45.640;13.812;2023-04-03T16:10:11;2.65;;;1.88;;
63312;SDS011;49442;45.640;13.812;2023-04-03T16:12:38;2.22;;;1.58;;
63312;SDS011;49442;45.640;13.812;2023-04-03T16:15:04;1.48;;;1.20;;
63312;SDS011;49442;45.640;13.812;2023-04-03T16:17:31;2.22;;;1.58;;
63312;SDS011;49442;45.640;13.812;2023-04-03T16:19:57;2.20;;;1.50;;
63312;SDS011;49442;45.640;13.812;2023-04-03T16:22:24;6.40;;;2.25;;
63312;SDS011;49442;45.640;13.812;2023-04-03T16:24:52;2.05;;;1.50;;
63312;SDS011;49442;45.640;13.812;2023-04-03T16:27:18;2.35;;;1.48;;
63312;SDS011;49442;45.640;13.812;2023-04-03T16:29:43;5.10;;;1.52;;
63312;SDS011;49442;45.640;13.812;2023-04-03T16:32:09;2.45;;;1.45;;
63312;SDS011;49442;45.640;13.812;2023-04-03T16:34:36;4.32;;;1.75;;
63312;SDS011;49442;45.640;13.812;2023-04-03T16:37:02;2.85;;;1.10;;
63312;SDS011;49442;45.640;13.812;2023-04-03T16:39:27;2.38;;;1.77;;
63312;SDS011;49442;45.640;13.812;2023-04-03T16:41:53;4.57;;;1.45;;
63312;SDS011;49442;45.640;13.812;2023-04-03T16:44:18;3.10;;;1.73;;
63312;SDS011;49442;45.640;13.812;2023-04-03T16:46:44;2.90;;;1.25;;
63312;SDS011;49442;45.640;13.812;2023-04-03T16:49:10;2.53;;;1.65;;
63312;SDS011;49442;45.640;13.812;2023-04-03T16:51:35;7.63;;;1.50;;
63312;SDS011;49442;45.640;13.812;2023-04-03T16:54:01;2.75;;;1.85;;
63312;SDS011;49442;45.640;13.812;2023-04-03T16:56:27;2.75;;;1.83;;